Time;durP1;ratioP1;P1;durP2;ratioP2;P2;SDS_P1;SDS_P2;PMS_P1;PMS_P2;Temp;Humidity;BMP_temperature;BMP_pressure;BME280_temperature;BME280_humidity;BME280_pressure;Samples;Min_cycle;Max_cycle;Signal;HPM_P1;HPM_P2
2021/09/03 00:00:09;;;;;;;14.02;7.15;;;11.50;99.90;;;;;;5052087;28;20079;-65
2021/09/03 00:02:37;;;;;;;10.25;6.57;;;11.50;99.90;;;;;;5040458;28;20580;-65
2021/09/03 00:05:04;;;;;;;11.77;7.03;;;11.40;99.90;;;;;;5041510;28;20064;-65
2021/09/03 00:07:30;;;;;;;10.07;6.57;;;11.40;99.90;;;;;;5042318;28;20604;-65
2021/09/03 00:09:55;;;;;;;;;;;11.40;99.90;;;;;;5040493;28;20124;-65
2021/09/03 00:12:22;;;;;;;12.57;6.38;;;11.40;99.90;;;;;;5041763;28;19933;-64
2021/09/03 00:14:48;;;;;;;8.90;5.95;;;11.40;99.90;;;;;;5041226;28;20420;-64
2021/09/03 00:17:13;;;;;;;;;;;11.40;99.90;;;;;;5037659;28;20041;-65
2021/09/03 00:19:39;;;;;;;10.52;6.15;;;11.40;99.90;;;;;;5053537;28;20018;-64
2021/09/03 00:22:05;;;;;;;;;;;11.30;99.90;;;;;;5057295;28;20045;-64
2021/09/03 00:24:30;;;;;;;15.80;6.30;;;11.30;99.90;;;;;;5048162;28;20426;-65
2021/09/03 00:26:56;;;;;;;;;;;11.30;99.90;;;;;;5048520;28;20037;-64
2021/09/03 00:29:22;;;;;;;12.82;7.05;;;11.20;99.90;;;;;;5037859;28;19921;-64
2021/09/03 00:31:47;;;;;;;;;;;11.20;99.90;;;;;;5043436;28;20045;-64
2021/09/03 00:34:13;;;;;;;11.73;6.55;;;11.20;99.90;;;;;;5048676;28;19974;-65
2021/09/03 00:36:39;;;;;;;;;;;11.20;99.90;;;;;;5048334;28;20040;-65
2021/09/03 00:39:04;;;;;;;12.40;6.82;;;11.20;99.90;;;;;;5031634;28;19917;-64
2021/09/03 00:41:30;;;;;;;;;;;11.20;99.90;;;;;;5028331;28;20121;-65
2021/09/03 00:43:55;;;;;;;15.60;6.85;;;11.20;99.90;;;;;;5027039;28;19924;-65
2021/09/03 00:46:21;;;;;;;;;;;11.20;99.90;;;;;;5027664;28;20096;-65
2021/09/03 00:48:46;;;;;;;19.25;7.95;;;11.10;99.90;;;;;;5027584;28;19921;-64
2021/09/03 00:51:12;;;;;;;;;;;11.10;99.90;;;;;;5028311;28;20160;-64
2021/09/03 00:53:38;;;;;;;16.58;7.32;;;11.10;99.90;;;;;;5028381;28;19917;-64
2021/09/03 00:56:04;;;;;;;;;;;11.10;99.90;;;;;;5028417;28;20095;-65
2021/09/03 00:58:29;;;;;;;10.00;6.53;;;11.00;99.90;;;;;;5033007;28;20002;-64
2021/09/03 01:00:55;;;;;;;;;;;11.10;99.90;;;;;;5037762;28;20042;-64
2021/09/03 01:03:21;;;;;;;11.13;6.65;;;11.10;99.90;;;;;;5060189;28;19967;-64
2021/09/03 01:05:47;;;;;;;;;;;11.10;99.90;;;;;;5067798;28;20508;-64
2021/09/03 01:08:13;;;;;;;11.35;6.97;;;11.00;99.90;;;;;;5051559;28;19917;-65
2021/09/03 01:10:38;;;;;;;;;;;10.90;99.90;;;;;;5043074;28;20064;-64
2021/09/03 01:13:04;;;;;;;8.13;6.38;;;11.00;99.90;;;;;;5058187;28;20650;-64
2021/09/03 01:15:30;;;;;;;;;;;11.00;99.90;;;;;;5054748;28;20071;-63
2021/09/03 01:17:56;;;;;;;12.13;5.72;;;11.00;99.90;;;;;;5045099;28;19971;-64
2021/09/03 01:20:21;;;;;;;;;;;10.90;99.90;;;;;;5047265;28;20591;-64
2021/09/03 01:22:47;;;;;;;14.73;6.65;;;10.90;99.90;;;;;;5047934;28;19920;-64
2021/09/03 01:25:14;;;;;;;;;;;10.90;99.90;;;;;;5047659;28;20098;-64
2021/09/03 01:27:41;;;;;;;27.63;7.03;;;10.90;99.90;;;;;;5055422;28;19967;-65
2021/09/03 01:30:13;;;;;;;13.63;6.97;;;10.90;99.90;;;;;;5043704;28;20052;-65
2021/09/03 01:32:40;;;;;;;17.85;6.85;;;11.00;99.90;;;;;;5056908;28;20055;-64
2021/09/03 01:35:06;;;;;;;12.02;6.50;;;10.90;99.90;;;;;;5064088;28;20039;-64
2021/09/03 01:37:32;;;;;;;15.27;7.82;;;10.90;99.90;;;;;;5051657;28;20049;-64
2021/09/03 01:39:58;;;;;;;;;;;10.80;99.90;;;;;;5058391;28;20044;-64
2021/09/03 01:42:24;;;;;;;11.05;6.43;;;10.90;99.90;;;;;;5066231;28;20514;-64
2021/09/03 01:44:49;;;;;;;;;;;10.80;99.90;;;;;;5054500;28;20471;-64
2021/09/03 01:47:15;;;;;;;10.85;6.38;;;10.70;99.90;;;;;;5066333;28;19928;-65
2021/09/03 01:49:40;;;;;;;;;;;10.80;99.90;;;;;;5066929;28;20050;-65
2021/09/03 01:52:06;;;;;;;11.73;6.90;;;10.80;99.90;;;;;;5067248;28;19923;-65
2021/09/03 01:54:32;;;;;;;;;;;10.80;99.90;;;;;;5055041;28;20049;-64
2021/09/03 01:56:57;;;;;;;14.52;7.25;;;10.80;99.90;;;;;;5057226;28;19920;-64
2021/09/03 01:59:23;;;;;;;;;;;10.70;99.90;;;;;;5054589;28;20531;-64
2021/09/03 02:01:48;;;;;;;10.10;6.60;;;10.70;99.90;;;;;;5030215;28;19923;-66
2021/09/03 02:04:14;;;;;;;;;;;10.80;99.90;;;;;;5027648;28;20109;-64
2021/09/03 02:06:39;;;;;;;12.02;6.38;;;10.80;99.90;;;;;;5027144;28;20004;-65
2021/09/03 02:09:05;;;;;;;;;;;10.80;99.90;;;;;;5026653;28;20051;-64
2021/09/03 02:11:31;;;;;;;11.20;6.68;;;10.70;99.90;;;;;;5036632;28;19964;-63
2021/09/03 02:13:56;;;;;;;;;;;10.70;99.90;;;;;;5045525;28;20044;-64
2021/09/03 02:16:22;;;;;;;11.60;6.18;;;10.70;99.90;;;;;;5046008;28;19952;-63
2021/09/03 02:18:48;;;;;;;;;;;10.60;99.90;;;;;;5046705;28;20051;-64
2021/09/03 02:21:13;;;;;;;11.63;6.40;;;10.60;99.90;;;;;;5057834;28;19966;-63
2021/09/03 02:23:39;;;;;;;;;;;10.60;99.90;;;;;;5066347;28;20729;-63
2021/09/03 02:26:05;;;;;;;12.38;7.10;;;10.70;99.90;;;;;;5065540;28;19931;-63
2021/09/03 02:28:31;;;;;;;121.82;70.93;;;10.70;99.90;;;;;;5055535;28;20033;-63
2021/09/03 02:30:56;;;;;;;;;;;10.70;99.90;;;;;;5035973;28;20401;-63
2021/09/03 02:33:22;;;;;;;49.17;24.42;;;10.80;99.90;;;;;;5035206;28;19928;-63
2021/09/03 02:35:48;;;;;;;;;;;10.80;99.90;;;;;;5026293;28;20095;-63
2021/09/03 02:38:13;;;;;;;55.50;29.02;;;10.70;99.90;;;;;;5025823;28;20317;-63
2021/09/03 02:40:39;;;;;;;;;;;10.80;99.90;;;;;;5027655;28;20047;-63
2021/09/03 02:43:05;;;;;;;32.85;15.10;;;10.80;99.90;;;;;;5025419;28;19925;-63
2021/09/03 02:45:31;;;;;;;;;;;10.70;99.90;;;;;;5026431;28;20045;-62
2021/09/03 02:47:56;;;;;;;18.13;9.15;;;10.60;99.90;;;;;;5026106;28;19924;-63
2021/09/03 02:50:22;;;;;;;;;;;10.70;99.90;;;;;;5026173;28;20038;-64
2021/09/03 02:52:48;;;;;;;15.55;9.23;;;10.70;99.90;;;;;;5026226;28;20592;-63
2021/09/03 02:55:13;;;;;;;;;;;10.70;99.90;;;;;;5026000;28;20052;-64
2021/09/03 02:57:39;;;;;;;15.55;7.43;;;10.60;99.90;;;;;;5043588;28;20015;-63
2021/09/03 03:00:06;;;;;;;;;;;10.60;99.90;;;;;;5034828;28;20037;-63
2021/09/03 03:02:32;;;;;;;12.38;7.65;;;10.60;99.90;;;;;;5025081;28;20361;-63
2021/09/03 03:04:57;;;;;;;;;;;10.60;99.90;;;;;;5049369;28;20072;-63
2021/09/03 03:07:23;;;;;;;11.68;7.32;;;10.60;99.90;;;;;;5043575;28;19925;-63
2021/09/03 03:09:49;;;;;;;;;;;10.60;99.90;;;;;;5045601;28;20044;-62
2021/09/03 03:12:18;;;;;;;13.13;7.60;;;10.70;99.90;;;;;;5041528;28;20073;-62
2021/09/03 03:14:44;;;;;;;13.07;8.18;;;10.60;99.90;;;;;;5042636;28;20048;-63
2021/09/03 03:17:09;;;;;;;;;;;10.60;99.90;;;;;;5054572;28;20049;-63
2021/09/03 03:19:35;;;;;;;13.18;7.95;;;10.60;99.90;;;;;;5065356;28;20050;-63
2021/09/03 03:22:02;;;;;;;11.20;7.70;;;10.60;99.90;;;;;;5063947;28;20037;-64
2021/09/03 03:24:27;;;;;;;17.42;8.85;;;10.60;99.90;;;;;;5065284;28;20056;-63
2021/09/03 03:26:53;;;;;;;;;;;10.60;99.90;;;;;;5064817;28;20044;-63
2021/09/03 03:29:19;;;;;;;14.50;7.55;;;10.60;99.90;;;;;;5044552;28;19917;-64
2021/09/03 03:31:44;;;;;;;;;;;10.60;99.90;;;;;;5040214;28;20044;-64
2021/09/03 03:34:10;;;;;;;28.08;8.70;;;10.60;99.90;;;;;;5045504;28;20368;-63
2021/09/03 03:36:36;;;;;;;;;;;10.50;99.90;;;;;;5045562;28;20140;-63
2021/09/03 03:39:01;;;;;;;16.73;8.45;;;10.60;99.90;;;;;;5045148;28;20019;-64
2021/09/03 03:41:27;;;;;;;;;;;10.60;99.90;;;;;;5043916;28;20642;-64
2021/09/03 03:43:53;;;;;;;18.00;8.93;;;10.60;99.90;;;;;;5045332;28;19917;-63
2021/09/03 03:46:18;;;;;;;;;;;10.60;99.90;;;;;;5045434;28;20090;-63
2021/09/03 03:48:44;;;;;;;17.00;8.07;;;10.60;99.90;;;;;;5045295;28;19917;-62
2021/09/03 03:51:09;;;;;;;;;;;10.60;99.90;;;;;;5046023;28;20068;-62
2021/09/03 03:53:35;;;;;;;17.30;9.93;;;10.60;99.90;;;;;;5046274;28;20890;-62
2021/09/03 03:56:00;;;;;;;;;;;10.60;99.90;;;;;;5042374;28;20045;-62
2021/09/03 03:58:26;;;;;;;16.75;9.75;;;10.60;99.90;;;;;;5035080;28;19924;-61
2021/09/03 04:00:51;;;;;;;;;;;10.60;99.90;;;;;;5035695;28;20037;-61
2021/09/03 04:03:17;;;;;;;16.27;8.38;;;10.50;99.90;;;;;;5029658;28;20370;-62
2021/09/03 04:05:43;;;;;;;;;;;10.60;99.90;;;;;;5027535;28;20045;-62
2021/09/03 04:08:08;;;;;;;19.52;9.20;;;10.50;99.90;;;;;;5027964;28;19979;-62
2021/09/03 04:10:34;;;;;;;;;;;10.50;99.90;;;;;;5030820;28;20041;-62
2021/09/03 04:13:00;;;;;;;14.13;8.20;;;10.60;99.90;;;;;;5048390;28;19923;-62
2021/09/03 04:15:25;;;;;;;25.30;9.10;;;10.60;99.90;;;;;;5048144;28;20040;-62
2021/09/03 04:17:51;;;;;;;;;;;10.50;99.90;;;;;;5057280;28;20048;-62
2021/09/03 04:20:17;;;;;;;13.40;8.20;;;10.50;99.90;;;;;;5069048;28;20011;-63
2021/09/03 04:22:42;;;;;;;;;;;10.50;99.90;;;;;;5069564;28;20036;-62
2021/09/03 04:25:09;;;;;;;12.27;7.20;;;10.50;99.90;;;;;;5069183;28;19920;-62
2021/09/03 04:27:36;;;;;;;21.00;9.18;;;10.50;99.90;;;;;;5065637;28;20064;-61
2021/09/03 04:30:04;;;;;;;22.27;9.27;;;10.50;99.90;;;;;;5041499;28;20046;-61
2021/09/03 04:32:29;;;;;;;16.48;8.73;;;10.50;99.90;;;;;;5032241;28;20424;-62
2021/09/03 04:34:55;;;;;;;;;;;10.50;99.90;;;;;;5049022;28;20127;-61
2021/09/03 04:37:20;;;;;;;14.05;8.38;;;10.40;99.90;;;;;;5047514;28;19927;-63
2021/09/03 04:39:46;;;;;;;;;;;10.40;99.90;;;;;;5047289;28;20048;-63
2021/09/03 04:42:12;;;;;;;15.82;9.65;;;10.60;99.90;;;;;;5059841;28;19916;-70
2021/09/03 04:44:37;;;;;;;;;;;10.70;99.90;;;;;;5055580;28;20044;-60
2021/09/03 04:47:03;;;;;;;17.00;9.30;;;10.70;99.90;;;;;;5049354;28;20589;-63
2021/09/03 04:49:29;;;;;;;;;;;10.70;99.90;;;;;;5045061;28;20037;-62
2021/09/03 04:51:55;;;;;;;20.85;10.38;;;10.70;99.90;;;;;;5031419;28;19959;-62
2021/09/03 04:54:20;;;;;;;;;;;10.70;99.90;;;;;;5048504;28;20037;-62
2021/09/03 04:56:46;;;;;;;58.45;35.22;;;10.70;99.90;;;;;;5044457;28;19925;-63
2021/09/03 04:59:12;;;;;;;;;;;10.70;99.90;;;;;;5042342;28;20034;-63
2021/09/03 05:01:38;;;;;;;24.13;13.70;;;10.70;99.90;;;;;;5061031;28;20281;-63
2021/09/03 05:04:04;;;;;;;;;;;10.70;99.90;;;;;;5048937;28;20097;-64
2021/09/03 05:06:30;;;;;;;35.88;17.50;;;10.70;99.90;;;;;;5048357;28;19931;-64
2021/09/03 05:08:57;;;;;;;;;;;10.70;99.90;;;;;;5054545;28;20060;-62
2021/09/03 05:11:22;;;;;;;22.38;10.90;;;10.90;99.90;;;;;;5036237;28;20018;-62
2021/09/03 05:13:48;;;;;;;;;;;11.20;99.90;;;;;;5029466;28;20080;-64
2021/09/03 05:16:14;;;;;;;25.25;12.15;;;11.60;99.90;;;;;;5027285;28;19921;-62
2021/09/03 05:18:40;;;;;;;23.35;12.63;;;12.00;99.90;;;;;;5042510;28;20041;-63
2021/09/03 05:21:09;;;;;;;;;;;12.50;99.90;;;;;;5020636;28;20038;-64
2021/09/03 05:23:35;;;;;;;15.63;8.15;;;13.20;99.90;;;;;;5046300;28;19920;-62
2021/09/03 05:26:02;;;;;;;12.13;7.55;;;13.70;99.90;;;;;;5051999;28;20059;-62
2021/09/03 05:28:27;;;;;;;11.48;7.03;;;13.70;99.90;;;;;;5045520;28;20274;-61
2021/09/03 05:30:54;;;;;;;;;;;13.70;99.90;;;;;;5039300;28;20354;-62
2021/09/03 05:33:19;;;;;;;17.75;7.82;;;13.40;99.90;;;;;;5048022;28;19920;-61
2021/09/03 05:35:45;;;;;;;;;;;13.20;99.90;;;;;;5047228;28;20146;-63
2021/09/03 05:38:11;;;;;;;13.32;6.78;;;13.50;99.90;;;;;;5048007;28;19970;-62
2021/09/03 05:40:37;;;;;;;;;;;13.50;99.90;;;;;;5047011;28;20116;-62
2021/09/03 05:43:03;;;;;;;14.45;8.20;;;13.70;99.90;;;;;;5027771;28;19994;-62
2021/09/03 05:45:29;;;;;;;17.40;7.35;;;14.00;99.90;;;;;;5026359;28;20057;-62
2021/09/03 05:47:55;;;;;;;;;;;13.60;99.90;;;;;;5026863;28;20038;-64
2021/09/03 05:50:21;;;;;;;12.25;7.38;;;13.30;99.90;;;;;;5025467;28;19971;-63
2021/09/03 05:52:46;;;;;;;;;;;13.30;99.90;;;;;;5025920;28;20042;-63
2021/09/03 05:55:19;;;;;;;12.80;7.43;;;13.20;99.90;;;;;;5026104;28;19944;-66
2021/09/03 05:57:44;;;;;;;15.95;8.07;;;13.10;99.90;;;;;;5031276;28;20087;-63
2021/09/03 06:00:10;;;;;;;;;;;13.10;99.90;;;;;;5027846;28;20049;-64
2021/09/03 06:02:36;;;;;;;16.95;8.52;;;13.10;99.90;;;;;;5044609;28;19970;-64
2021/09/03 06:05:03;;;;;;;;;;;13.10;99.90;;;;;;5047266;28;20040;-63
2021/09/03 06:07:29;;;;;;;;;;;13.10;99.90;;;;;;5048120;28;19928;-63
2021/09/03 06:09:55;;;;;;;13.95;7.70;;;13.20;99.90;;;;;;5045080;28;19921;-64
2021/09/03 06:12:21;;;;;;;;;;;13.50;99.90;;;;;;5029799;28;20073;-64
2021/09/03 06:14:46;;;;;;;16.00;7.70;;;13.70;99.90;;;;;;5027323;28;19928;-63
2021/09/03 06:17:13;;;;;;;;;;;13.80;99.90;;;;;;5033517;28;20456;-63
2021/09/03 06:19:41;;;;;;;14.02;7.55;;;13.70;99.90;;;;;;5062296;28;20282;-65
2021/09/03 06:22:07;;;;;;;24.23;13.45;;;13.80;99.90;;;;;;5065395;28;20427;-64
2021/09/03 06:24:35;;;;;;;21.13;10.55;;;14.00;99.90;;;;;;5055134;28;20494;-64
2021/09/03 06:27:04;;;;;;;29.52;16.20;;;14.20;99.90;;;;;;5018889;28;20048;-63
2021/09/03 06:29:39;;;;;;;19.15;13.52;;;14.30;99.90;;;;;;5037521;28;20037;-64
2021/09/03 06:32:15;;;;;;;29.83;16.83;;;14.70;99.90;;;;;;5039311;28;20143;-64
2021/09/03 06:34:46;;;;;;;23.52;13.00;;;15.00;99.90;;;;;;5039568;28;20463;-63
2021/09/03 06:37:13;;;;;;;155.02;79.63;;;14.90;99.90;;;;;;5048324;28;20080;-63
2021/09/03 06:39:39;;;;;;;32.03;17.30;;;14.70;99.90;;;;;;5038691;28;20068;-63
2021/09/03 06:42:06;;;;;;;;;;;14.60;99.90;;;;;;5018730;28;20048;-63
2021/09/03 06:44:32;;;;;;;17.88;9.40;;;14.40;99.90;;;;;;5037237;28;20323;-62
2021/09/03 06:46:58;;;;;;;14.68;8.07;;;14.20;99.90;;;;;;5037446;28;20041;-65
2021/09/03 06:49:25;;;;;;;;;;;14.20;99.90;;;;;;5018756;28;20052;-65
2021/09/03 06:51:51;;;;;;;12.30;6.95;;;14.30;99.90;;;;;;5035734;28;19924;-65
2021/09/03 06:54:16;;;;;;;;;;;14.30;99.90;;;;;;5037333;28;20052;-62
2021/09/03 06:56:42;;;;;;;15.60;7.65;;;14.40;99.90;;;;;;5048730;28;19927;-63
2021/09/03 06:59:08;;;;;;;;;;;14.50;99.90;;;;;;5038461;28;20144;-63
2021/09/03 07:01:33;;;;;;;219.00;117.45;;;14.50;99.90;;;;;;5033250;28;20014;-63
2021/09/03 07:03:59;;;;;;;;;;;14.50;99.90;;;;;;5013000;28;20565;-63
2021/09/03 07:06:25;;;;;;;37.40;21.17;;;14.60;99.90;;;;;;5028016;28;19925;-63
2021/09/03 07:08:50;;;;;;;;;;;14.60;99.90;;;;;;5052966;28;20308;-64
2021/09/03 07:11:16;;;;;;;18.67;9.73;;;14.80;99.90;;;;;;5059924;28;19956;-65
2021/09/03 07:13:41;;;;;;;;;;;14.80;99.90;;;;;;5048090;28;20044;-63
2021/09/03 07:16:08;;;;;;;20.55;11.20;;;14.90;99.90;;;;;;5046885;28;19916;-63
2021/09/03 07:18:33;;;;;;;24.95;13.63;;;15.00;99.90;;;;;;5055064;28;20044;-64
2021/09/03 07:20:59;;;;;;;;;;;15.00;99.90;;;;;;5048497;28;20037;-64
2021/09/03 07:23:25;;;;;;;16.45;8.57;;;15.00;99.90;;;;;;5049387;28;19943;-64
2021/09/03 07:25:51;;;;;;;;;;;15.00;99.90;;;;;;5048208;28;20440;-64
2021/09/03 07:28:17;;;;;;;20.77;9.90;;;15.10;99.90;;;;;;5052244;28;19919;-64
2021/09/03 07:30:43;;;;;;;;;;;15.20;99.90;;;;;;5045116;28;20425;-63
2021/09/03 07:33:09;;;;;;;16.27;8.98;;;15.30;99.90;;;;;;5063382;28;20316;-63
2021/09/03 07:35:34;;;;;;;;;;;15.30;99.90;;;;;;5052867;28;20061;-63
2021/09/03 07:38:00;;;;;;;14.82;8.40;;;15.40;99.90;;;;;;5058655;28;19916;-63
2021/09/03 07:40:26;;;;;;;;;;;15.50;99.90;;;;;;5051180;28;20705;-63
2021/09/03 07:42:53;;;;;;;10.82;6.97;;;15.60;99.90;;;;;;5051314;28;20400;-63
2021/09/03 07:45:19;;;;;;;15.25;8.00;;;15.70;99.90;;;;;;5049044;28;20033;-63
2021/09/03 07:47:45;;;;;;;17.85;7.95;;;15.80;99.90;;;;;;5049020;28;20056;-63
2021/09/03 07:50:10;;;;;;;;;;;15.90;99.90;;;;;;5050088;28;20048;-63
2021/09/03 07:52:36;;;;;;;16.17;7.00;;;16.00;99.90;;;;;;5050934;28;19921;-64
2021/09/03 07:55:03;;;;;;;;;;;16.10;99.90;;;;;;5050442;28;20128;-63
2021/09/03 07:57:28;;;;;;;14.00;7.57;;;16.30;99.90;;;;;;5048805;28;20451;-63
2021/09/03 07:59:54;;;;;;;;;;;16.50;99.90;;;;;;5034157;28;20034;-62
2021/09/03 08:02:19;;;;;;;11.82;6.82;;;16.70;99.90;;;;;;5049701;28;20043;-63
2021/09/03 08:04:45;;;;;;;;;;;17.20;99.90;;;;;;5050535;28;20043;-62
2021/09/03 08:07:11;;;;;;;11.93;6.85;;;17.80;99.90;;;;;;5050622;28;19920;-64
2021/09/03 08:09:36;;;;;;;;;;;18.20;99.90;;;;;;5029365;28;20040;-64
2021/09/03 08:12:02;;;;;;;9.57;6.68;;;18.60;99.90;;;;;;5062452;28;19975;-65
2021/09/03 08:14:28;;;;;;;;;;;19.50;99.90;;;;;;5070563;28;20519;-65
2021/09/03 08:16:54;;;;;;;9.65;6.00;;;21.10;99.90;;;;;;5067452;28;19923;-63
2021/09/03 08:19:20;;;;;;;9.20;5.78;;;22.50;97.20;;;;;;5038149;28;20477;-64
2021/09/03 08:21:45;;;;;;;8.88;5.60;;;23.70;97.10;;;;;;5034266;28;20053;-64
2021/09/03 08:24:11;;;;;;;10.43;5.25;;;24.60;92.20;;;;;;5031165;28;20046;-64
2021/09/03 08:26:38;;;;;;;10.13;4.97;;;25.40;92.40;;;;;;5030583;28;20069;-64
2021/09/03 08:29:04;;;;;;;12.43;6.00;;;26.10;91.00;;;;;;5048546;28;20053;-63
2021/09/03 08:31:30;;;;;;;11.45;4.57;;;26.40;89.90;;;;;;5023409;28;20090;-63
2021/09/03 08:33:56;;;;;;;8.30;5.25;;;25.80;78.00;;;;;;5050301;28;20021;-63
2021/09/03 08:36:23;;;;;;;8.50;5.20;;;25.10;79.40;;;;;;5054861;28;20052;-64
2021/09/03 08:38:48;;;;;;;9.80;5.80;;;24.20;84.90;;;;;;5049708;28;20041;-64
2021/09/03 08:41:18;;;;;;;7.32;5.00;;;23.40;91.10;;;;;;5050122;28;20161;-64
2021/09/03 08:43:45;;;;;;;10.95;5.63;;;22.60;92.00;;;;;;5038360;28;20078;-63
2021/09/03 08:46:14;;;;;;;9.65;5.07;;;21.90;92.70;;;;;;5032892;28;20076;-65
2021/09/03 08:48:42;;;;;;;10.25;5.53;;;21.30;92.20;;;;;;5048820;28;20448;-64
2021/09/03 08:51:09;;;;;;;6.90;5.22;;;20.90;93.00;;;;;;5053367;28;20499;-64
2021/09/03 08:53:35;;;;;;;7.70;5.35;;;20.50;94.10;;;;;;5048118;28;20052;-64
2021/09/03 08:56:00;;;;;;;;;;;20.30;95.20;;;;;;5047600;28;20049;-63
2021/09/03 08:58:26;;;;;;;11.73;5.57;;;20.10;94.20;;;;;;5049881;28;19921;-63
2021/09/03 09:01:07;;;;;;;9.68;5.63;;;20.10;95.20;;;;;;5019652;28;20052;-64
2021/09/03 09:03:36;;;;;;;9.30;5.35;;;19.90;94.60;;;;;;5028936;28;20049;-64
2021/09/03 09:06:03;;;;;;;11.48;6.15;;;19.90;95.80;;;;;;5033504;28;20068;-64
2021/09/03 09:08:31;;;;;;;9.15;5.68;;;19.90;95.30;;;;;;5051075;28;20053;-64
2021/09/03 09:10:57;;;;;;;8.80;5.55;;;20.00;97.20;;;;;;5061415;28;20029;-64
2021/09/03 09:13:27;;;;;;;;;;;20.00;96.50;;;;;;5052387;28;20290;-64
2021/09/03 09:16:14;;;;;;;8.23;5.68;;;19.90;94.90;;;;;;5057221;28;19920;-65
2021/09/03 09:18:41;;;;;;;;;;;20.10;94.90;;;;;;5065872;28;20068;-64
2021/09/03 09:21:34;;;;;;;9.40;5.72;;;20.10;95.30;;;;;;5074951;28;20443;-63
2021/09/03 09:24:13;;;;;;;9.27;5.88;;;20.00;94.80;;;;;;5060449;28;20106;-65
2021/09/03 09:26:51;;;;;;;13.90;8.68;;;20.10;95.10;;;;;;5058563;28;20052;-63
2021/09/03 09:29:23;;;;;;;10.82;6.53;;;20.20;95.00;;;;;;5032331;28;20045;-63
2021/09/03 09:31:55;;;;;;;8.95;5.72;;;20.40;95.60;;;;;;5052937;28;20041;-63
2021/09/03 09:34:28;;;;;;;8.98;5.70;;;20.40;94.30;;;;;;5061784;28;20111;-63
2021/09/03 09:36:56;;;;;;;8.60;5.18;;;20.30;94.70;;;;;;5035941;28;20403;-63
2021/09/03 09:39:24;;;;;;;10.63;5.18;;;20.40;94.90;;;;;;5047254;28;20124;-62
2021/09/03 09:41:58;;;;;;;11.73;5.63;;;20.40;94.30;;;;;;5045704;28;20047;-63
2021/09/03 09:44:29;;;;;;;8.27;5.93;;;20.40;94.20;;;;;;5030289;28;20064;-62
2021/09/03 09:47:12;;;;;;;10.63;5.88;;;20.40;94.40;;;;;;5052163;28;20553;-64
2021/09/03 09:49:38;;;;;;;9.73;5.43;;;20.50;95.70;;;;;;5049906;28;20033;-64
2021/09/03 09:52:03;;;;;;;;;;;20.50;94.90;;;;;;5054274;28;20433;-63
2021/09/03 09:54:29;;;;;;;9.07;5.70;;;20.50;94.50;;;;;;5046573;28;19967;-63
2021/09/03 09:57:11;;;;;;;8.90;5.47;;;20.50;94.80;;;;;;5058661;28;20052;-64
2021/09/03 09:59:37;;;;;;;11.93;6.38;;;20.60;95.00;;;;;;5041520;28;20425;-64
2021/09/03 10:02:03;;;;;;;;;;;20.70;95.30;;;;;;5045937;28;20045;-64
2021/09/03 10:04:31;;;;;;;10.88;6.75;;;20.80;95.80;;;;;;5064042;28;19916;-64
2021/09/03 10:07:00;;;;;;;9.32;6.18;;;20.90;95.80;;;;;;5065114;28;20413;-64
2021/09/03 10:09:30;;;;;;;10.55;6.43;;;20.80;95.40;;;;;;5056761;28;20444;-64
2021/09/03 10:11:57;;;;;;;25.52;6.45;;;20.80;95.10;;;;;;5055693;28;20041;-64
2021/09/03 10:14:42;;;;;;;14.02;6.40;;;20.80;94.30;;;;;;5046857;28;20079;-64
2021/09/03 10:17:10;;;;;;;10.73;6.32;;;20.90;95.10;;;;;;5046179;28;20045;-64
2021/09/03 10:19:38;;;;;;;22.95;10.40;;;21.30;95.70;;;;;;5046675;28;20148;-64
2021/09/03 10:22:09;;;;;;;10.25;6.72;;;21.50;95.00;;;;;;5045742;28;20041;-64
2021/09/03 10:24:36;;;;;;;9.68;5.78;;;21.70;95.90;;;;;;5049390;28;20041;-64
2021/09/03 10:27:03;;;;;;;11.52;6.15;;;21.70;94.70;;;;;;5047417;28;20099;-64
2021/09/03 10:29:31;;;;;;;10.65;5.97;;;21.60;93.30;;;;;;5047206;28;20076;-64
2021/09/03 10:32:06;;;;;;;10.27;6.15;;;21.40;93.70;;;;;;5014812;28;20045;-64
2021/09/03 10:34:44;;;;;;;15.10;5.93;;;21.30;93.10;;;;;;5026934;28;20037;-64
2021/09/03 10:37:16;;;;;;;9.07;5.97;;;21.30;94.10;;;;;;5029173;28;20120;-63
2021/09/03 10:39:46;;;;;;;17.48;6.90;;;21.50;95.90;;;;;;5026420;28;20064;-63
2021/09/03 10:45:29;;;;;;;10.30;5.55;;;21.80;93.80;;;;;;5026569;28;20144;-62
2021/09/03 10:48:15;;;;;;;9.98;5.35;;;22.00;92.50;;;;;;5025502;28;20442;-63
2021/09/03 10:50:53;;;;;;;12.23;6.07;;;21.90;93.70;;;;;;5029231;28;20056;-63
2021/09/03 10:53:37;;;;;;;9.63;5.50;;;22.00;93.50;;;;;;5052298;28;20134;-62
2021/09/03 10:56:12;;;;;;;8.98;5.80;;;21.50;92.80;;;;;;5044083;28;20040;-65
2021/09/03 10:59:10;;;;;;;10.70;6.10;;;21.20;93.90;;;;;;5043989;28;20045;-61
2021/09/03 11:01:49;;;;;;;8.18;5.80;;;21.20;95.60;;;;;;5008960;28;20098;-65
2021/09/03 11:04:16;;;;;;;9.15;5.95;;;21.50;94.90;;;;;;5025699;28;20086;-64
2021/09/03 11:06:51;;;;;;;8.50;5.32;;;21.50;93.30;;;;;;5026167;28;20049;-62
2021/09/03 11:09:16;;;;;;;7.07;5.03;;;21.50;94.10;;;;;;5037093;28;20045;-63
2021/09/03 11:11:49;;;;;;;;;;;21.50;94.90;;;;;;5046389;28;20401;-63
2021/09/03 11:14:21;;;;;;;6.85;4.93;;;21.60;95.10;;;;;;5045558;28;19940;-63
2021/09/03 11:16:48;;;;;;;7.55;4.78;;;21.60;95.00;;;;;;5045577;28;20131;-61
2021/09/03 11:19:32;;;;;;;9.68;5.47;;;21.60;95.20;;;;;;5041310;28;20060;-61
2021/09/03 11:22:13;;;;;;;9.50;5.88;;;21.40;93.80;;;;;;5054045;28;20051;-62
2021/09/03 11:24:44;;;;;;;9.15;5.90;;;21.60;96.10;;;;;;5059273;28;20551;-63
2021/09/03 11:27:27;;;;;;;8.75;6.07;;;21.60;95.40;;;;;;5065347;28;20143;-62
2021/09/03 11:29:57;;;;;;;8.75;5.53;;;21.80;94.00;;;;;;5033720;28;20037;-66
2021/09/03 11:35:07;;;;;;;12.10;5.28;;;21.80;92.70;;;;;;5005524;28;20045;-62
2021/09/03 11:37:38;;;;;;;8.80;5.80;;;21.60;92.60;;;;;;5008802;28;20086;-64
2021/09/03 11:40:07;;;;;;;8.52;5.15;;;21.60;93.70;;;;;;5006826;28;20095;-61
2021/09/03 11:42:35;;;;;;;8.32;5.47;;;21.70;93.40;;;;;;5007727;28;20042;-62
2021/09/03 11:45:05;;;;;;;14.43;9.32;;;21.80;92.90;;;;;;5027584;28;20390;-61
2021/09/03 11:47:35;;;;;;;9.60;5.68;;;22.00;94.60;;;;;;5025838;28;20073;-62
2021/09/03 11:50:08;;;;;;;8.25;5.13;;;22.30;94.00;;;;;;5026240;28;20045;-63
2021/09/03 11:52:34;;;;;;;10.20;7.15;;;22.20;92.40;;;;;;5011499;28;20102;-64
2021/09/03 11:55:04;;;;;;;9.82;5.80;;;22.30;92.70;;;;;;5022100;28;20136;-64
2021/09/03 11:57:55;;;;;;;10.60;5.63;;;22.30;92.20;;;;;;5024044;28;20053;-62
2021/09/03 12:00:24;;;;;;;9.13;5.90;;;22.30;93.50;;;;;;5023049;28;20403;-61
2021/09/03 12:02:51;;;;;;;11.55;5.63;;;22.30;93.60;;;;;;5024037;28;20048;-60
2021/09/03 12:05:18;;;;;;;11.05;5.75;;;22.40;93.60;;;;;;5024188;28;20075;-62
2021/09/03 12:08:13;;;;;;;10.10;5.57;;;22.30;93.30;;;;;;4999596;28;20042;-63
2021/09/03 12:10:41;;;;;;;8.60;5.40;;;22.00;93.70;;;;;;5008138;28;20418;-62
2021/09/03 12:13:16;;;;;;;9.25;5.78;;;21.80;94.50;;;;;;5025691;28;20037;-62
2021/09/03 12:15:43;;;;;;;10.07;5.55;;;21.70;95.70;;;;;;5027780;28;20071;-62
2021/09/03 12:18:31;;;;;;;7.38;5.20;;;21.60;95.70;;;;;;5028616;28;20072;-62
2021/09/03 12:21:12;;;;;;;12.18;6.15;;;21.40;96.10;;;;;;5028794;28;20043;-62
2021/09/03 12:23:40;;;;;;;9.73;6.10;;;21.30;96.30;;;;;;5028765;28;20495;-62
2021/09/03 12:26:18;;;;;;;14.85;6.03;;;21.20;96.10;;;;;;5028888;28;20037;-61
2021/09/03 12:28:48;;;;;;;11.18;6.00;;;21.10;96.40;;;;;;5034507;28;20044;-61
2021/09/03 12:31:17;;;;;;;9.88;5.57;;;20.90;96.60;;;;;;5039300;28;20040;-62
2021/09/03 12:34:00;;;;;;;9.45;5.93;;;20.80;96.90;;;;;;5047675;28;20060;-62
2021/09/03 12:36:28;;;;;;;13.02;6.63;;;20.70;96.90;;;;;;5047961;28;20102;-62
2021/09/03 12:39:21;;;;;;;8.85;5.35;;;20.70;97.60;;;;;;5048188;28;20183;-62
2021/09/03 12:41:47;;;;;;;12.60;5.57;;;21.00;97.00;;;;;;5048892;28;20393;-63
2021/09/03 12:44:26;;;;;;;9.20;5.65;;;21.30;96.20;;;;;;5048573;28;20068;-64
2021/09/03 12:47:00;;;;;;;12.73;6.35;;;21.50;96.60;;;;;;5036186;28;20041;-64
2021/09/03 12:49:33;;;;;;;10.60;5.25;;;21.60;95.30;;;;;;5028270;28;20458;-65
2021/09/03 12:52:02;;;;;;;8.32;5.95;;;21.70;94.60;;;;;;5028156;28;20053;-64
2021/09/03 12:54:28;;;;;;;21.45;12.55;;;21.70;92.60;;;;;;5028230;28;20045;-63
2021/09/03 12:56:54;;;;;;;11.45;6.82;;;21.90;94.20;;;;;;5027974;28;20049;-63
2021/09/03 12:59:21;;;;;;;15.30;6.80;;;21.90;93.60;;;;;;5035063;28;20090;-64
2021/09/03 13:01:48;;;;;;;13.20;6.45;;;21.80;93.10;;;;;;5039447;28;20464;-64
2021/09/03 13:04:15;;;;;;;8.60;5.75;;;21.70;93.30;;;;;;5026204;28;20128;-63
2021/09/03 13:06:45;;;;;;;14.95;6.55;;;21.60;93.20;;;;;;5027562;28;20153;-64
2021/09/03 13:09:11;;;;;;;19.05;6.05;;;21.50;94.80;;;;;;5027562;28;20045;-64
2021/09/03 13:11:37;;;;;;;9.77;6.28;;;21.60;95.40;;;;;;4998836;28;20044;-64
2021/09/03 13:14:03;;;;;;;12.20;5.60;;;21.70;95.20;;;;;;5008244;28;20121;-64